M I D A S
Marine Information and Data Acquisition System
Tripno 935 of the Zeeleeuw from 2005-07-04 06:34:52 to 2005-07-04 12:00:02
Back to CruiseResearch ActivitiesStationsMapUnderway DataData graphs

EquipmentUnitsComment
TimeDGPSUTC
LatitudeDGPSDM.mWGS84
LongitudeDGPSDM.mWGS84
HeadingGyrodeg 
SOGDGPSknotsSpeed over ground
COGDGPSdegCourse over ground
DepthEcho soundermeters200 kHz
Missing or incorrect values are displayed as -999
Navigation data collected by the RV Zeeleeuw from 2005-07-04 06:30:44 to 2005-07-04 12:10:51
                                                                                    Next 1000 lines
Time Latitude Longitude Heading SOG COG Depth
2005-07-04 06:30:54 51°13.594 2°56.111 136.5 0.3 125 5.1
2005-07-04 06:30:59 51°13.593 2°56.112 137.1 1.1 134 4.8
2005-07-04 06:31:04 51°13.593 2°56.113 137.4 1.1 134 5
2005-07-04 06:31:09 51°13.593 2°56.114 138.2 0.6 124 5.3
2005-07-04 06:31:14 51°13.592 2°56.115 138.5 0.6 124 4.9
2005-07-04 06:31:20 51°13.592 2°56.116 138.2 0.6 112 5
2005-07-04 06:31:24 51°13.592 2°56.117 138 0.5 121 5.1
2005-07-04 06:31:29 51°13.592 2°56.117 137.9 0.1 95 4.9
2005-07-04 06:31:34 51°13.592 2°56.117 138.1 0.1 51 5
2005-07-04 06:31:39 51°13.592 2°56.117 137.9 0.2 342 5.1
2005-07-04 06:31:44 51°13.593 2°56.116 137.4 0.2 342 4.9
2005-07-04 06:31:49 51°13.593 2°56.116 136.6 0.2 331 4.9
2005-07-04 06:31:54 51°13.593 2°56.116 136.4 0.2 336 4.9
2005-07-04 06:31:59 51°13.593 2°56.116 136 0.2 336 5.1
2005-07-04 06:32:04 51°13.593 2°56.115 135.7 0.2 336 5.3
2005-07-04 06:32:09 51°13.593 2°56.115 135.4 0.2 302 5
2005-07-04 06:32:15 51°13.594 2°56.115 135.3 0.2 302 -999
2005-07-04 06:32:20 51°13.594 2°56.114 135 0.3 298 -999
2005-07-04 06:32:24 51°13.594 2°56.114 135 0.3 314 4.9
2005-07-04 06:32:29 51°13.594 2°56.113 134.9 0.3 301 4.9
2005-07-04 06:32:34 51°13.594 2°56.112 134.8 0.3 298 6.4
2005-07-04 06:32:39 51°13.595 2°56.112 134.8 0.3 298 6.4
2005-07-04 06:32:44 51°13.595 2°56.112 134.8 0.3 315 6.4
2005-07-04 06:32:49 51°13.595 2°56.111 134.7 0.3 305 6.4
2005-07-04 06:32:54 51°13.595 2°56.111 134.7 0.3 305 6.4
2005-07-04 06:32:59 51°13.595 2°56.111 134.6 0.3 305 6.4
2005-07-04 06:33:04 51°13.595 2°56.111 134.4 -999 225 6.4
2005-07-04 06:33:08 51°13.595 2°56.111 134.4 -999 197 6.4
2005-07-04 06:33:14 51°13.595 2°56.111 134.4 -999 197 6.4
2005-07-04 06:33:19 51°13.595 2°56.111 134.7 -999 197 6.4
2005-07-04 06:33:24 51°13.595 2°56.11 134.8 0.1 239 6.3
2005-07-04 06:33:29 51°13.595 2°56.11 135 0.1 226 6.3
2005-07-04 06:33:34 51°13.595 2°56.11 135.3 0.1 219 6.4
2005-07-04 06:33:39 51°13.595 2°56.11 135.8 0.1 219 6.3
2005-07-04 06:33:44 51°13.595 2°56.109 136.2 0.1 219 6.3
2005-07-04 06:33:48 51°13.595 2°56.109 136.7 0.1 255 6.3
2005-07-04 06:33:54 51°13.594 2°56.109 137.2 0.1 257 6.3
2005-07-04 06:33:59 51°13.594 2°56.109 137.9 0.1 251 6.3
2005-07-04 06:34:04 51°13.594 2°56.108 138.3 0.1 251 6.3
2005-07-04 06:34:10 51°13.594 2°56.108 138.9 0.1 251 6.3
2005-07-04 06:34:14 51°13.594 2°56.108 139.5 0.1 251 6.3
2005-07-04 06:34:19 51°13.594 2°56.109 140.1 0.1 136 4.9
2005-07-04 06:34:24 51°13.593 2°56.11 140.8 0.6 145 -999
2005-07-04 06:34:30 51°13.591 2°56.112 141.5 1.1 135 5
2005-07-04 06:34:34 51°13.59 2°56.114 142.2 1.4 142 6.5
2005-07-04 06:34:39 51°13.587 2°56.117 143.3 1.8 138 6.7
2005-07-04 06:34:44 51°13.585 2°56.12 144.1 1.8 138 7
2005-07-04 06:34:50 51°13.581 2°56.124 144.8 2.7 141 7.7
2005-07-04 06:34:54 51°13.578 2°56.128 145.5 2.7 141 9.3
2005-07-04 06:35:00 51°13.575 2°56.132 146 2.9 144 9.5
2005-07-04 06:35:04 51°13.571 2°56.135 147.1 3.1 146 4.9
2005-07-04 06:35:10 51°13.567 2°56.14 147.8 3.2 146 9.8
2005-07-04 06:35:14 51°13.564 2°56.144 147.4 3.2 146 9.9
2005-07-04 06:35:20 51°13.56 2°56.15 144.7 3.2 146 9.9
2005-07-04 06:35:24 51°13.557 2°56.155 140.9 3.5 135 9.9
2005-07-04 06:35:29 51°13.555 2°56.161 133.5 3.6 126 9.8
2005-07-04 06:35:34 51°13.552 2°56.168 126.7 3.6 120 9.9
2005-07-04 06:35:39 51°13.551 2°56.176 118 3.6 114 9.9
2005-07-04 06:35:44 51°13.55 2°56.182 112 3.3 104 9.8
2005-07-04 06:35:49 51°13.55 2°56.189 106.5 3.1 101 9.9
2005-07-04 06:35:54 51°13.55 2°56.193 103 2.3 96 9.9
2005-07-04 06:35:59 51°13.55 2°56.196 97.9 2.3 96 9.9
2005-07-04 06:36:04 51°13.55 2°56.198 93.6 1.4 86 9.4
2005-07-04 06:36:09 51°13.551 2°56.199 88.7 1 81 8.9
2005-07-04 06:36:14 51°13.551 2°56.199 85.3 0.4 51 8.6
2005-07-04 06:36:19 51°13.551 2°56.199 82.6 0.4 51 8.4
2005-07-04 06:36:24 51°13.551 2°56.197 80.5 0.4 292 8.4
2005-07-04 06:36:30 51°13.551 2°56.194 79 1 271 9.4
2005-07-04 06:36:34 51°13.552 2°56.192 77.4 1 271 9.7
2005-07-04 06:36:39 51°13.552 2°56.191 76.1 1 271 5.1
2005-07-04 06:36:44 51°13.552 2°56.191 74.9 0.6 285 5.2
2005-07-04 06:36:50 51°13.552 2°56.192 72.6 0.6 285 5.2
2005-07-04 06:36:54 51°13.553 2°56.193 69 0.5 25 -999
2005-07-04 06:37:00 51°13.554 2°56.194 63.5 0.9 47 -999
2005-07-04 06:37:04 51°13.554 2°56.195 57.5 0.9 40 -999
2005-07-04 06:37:09 51°13.555 2°56.195 54.2 0.9 40 5
2005-07-04 06:37:14 51°13.555 2°56.194 51.8 0.3 339 -999
2005-07-04 06:37:20 51°13.555 2°56.193 48.4 0.4 280 5.1
2005-07-04 06:37:24 51°13.555 2°56.192 46.7 0.6 261 8.1
2005-07-04 06:37:29 51°13.554 2°56.19 45 0.9 247 8.2
2005-07-04 06:37:34 51°13.553 2°56.188 43.8 1.1 243 4.9
2005-07-04 06:37:39 51°13.552 2°56.186 42.3 1.2 240 9.3
2005-07-04 06:37:44 51°13.551 2°56.184 41.1 1.2 237 -999
2005-07-04 06:37:49 51°13.551 2°56.183 40.5 0.9 241 9.8
2005-07-04 06:37:54 51°13.551 2°56.182 39.6 0.9 241 9.8
2005-07-04 06:37:59 51°13.552 2°56.182 37 0.5 347 9.8
2005-07-04 06:38:04 51°13.554 2°56.183 32.9 1 12 9.7
2005-07-04 06:38:09 51°13.555 2°56.183 27.7 1.2 15 9.1
2005-07-04 06:38:14 51°13.556 2°56.183 23.2 0.8 354 8.8
2005-07-04 06:38:18 51°13.556 2°56.182 20.1 0.3 281 8.3
2005-07-04 06:38:24 51°13.555 2°56.181 16.9 0.3 281 8.7
2005-07-04 06:38:29 51°13.554 2°56.18 14.7 0.8 208 9.3
2005-07-04 06:38:34 51°13.552 2°56.179 13.1 1 213 -999
2005-07-04 06:38:40 51°13.551 2°56.178 12.3 1 213 9.8
2005-07-04 06:38:44 51°13.551 2°56.178 11.8 0.6 238 9.8
2005-07-04 06:38:48 51°13.552 2°56.177 10.6 0.4 321 6.4
2005-07-04 06:38:54 51°13.553 2°56.176 7.5 0.4 321 9.6
2005-07-04 06:38:59 51°13.554 2°56.174 2.5 0.4 321 9.3
2005-07-04 06:39:04 51°13.555 2°56.173 359.9 1 332 9.2
2005-07-04 06:39:10 51°13.556 2°56.172 357.7 0.9 325 9.1
2005-07-04 06:39:14 51°13.556 2°56.171 356.3 0.8 317 9.1
2005-07-04 06:39:18 51°13.556 2°56.17 354.7 0.4 287 9.3
2005-07-04 06:39:23 51°13.555 2°56.169 352.8 0.4 287 9.4
2005-07-04 06:39:28 51°13.554 2°56.168 351.1 0.9 197 9.6
2005-07-04 06:39:34 51°13.552 2°56.168 349.1 1.1 187 9.7
2005-07-04 06:39:39 51°13.551 2°56.168 346.9 1.1 185 9.8
2005-07-04 06:39:44 51°13.55 2°56.168 345.4 1 188 4.9
2005-07-04 06:39:50 51°13.55 2°56.167 343.6 0.5 225 -999
2005-07-04 06:39:54 51°13.55 2°56.166 341.1 0.5 280 5
2005-07-04 06:40:00 51°13.551 2°56.163 336.8 0.9 302 5
2005-07-04 06:40:04 51°13.553 2°56.161 331.7 0.9 302 9.9
2005-07-04 06:40:09 51°13.555 2°56.157 327.1 2 309 9.9
2005-07-04 06:40:14 51°13.557 2°56.153 320.7 2.3 307 9.9
2005-07-04 06:40:19 51°13.559 2°56.147 313.3 2.3 307 9.9
2005-07-04 06:40:24 51°13.561 2°56.141 305.9 3 298 9.9
2005-07-04 06:40:30 51°13.563 2°56.132 301.1 3 298 10
2005-07-04 06:40:34 51°13.565 2°56.125 296.2 3.8 290 9.9
2005-07-04 06:40:39 51°13.567 2°56.117 293.6 4 292 10
2005-07-04 06:40:44 51°13.569 2°56.107 293.8 4 292 10
2005-07-04 06:40:49 51°13.572 2°56.098 296 4.5 295 9.9
2005-07-04 06:40:54 51°13.575 2°56.089 298.3 4.5 295 10
2005-07-04 06:40:58 51°13.577 2°56.081 299.2 4.9 296 9.8
2005-07-04 06:41:04 51°13.581 2°56.068 299.3 5.1 297 9.7
2005-07-04 06:41:09 51°13.585 2°56.057 299.2 5.1 297 9.7
2005-07-04 06:41:14 51°13.589 2°56.046 299.7 5.1 297 9.6
2005-07-04 06:41:19 51°13.593 2°56.035 300.4 5.1 297 9.6
2005-07-04 06:41:24 51°13.596 2°56.025 301.7 5.1 297 9.6
2005-07-04 06:41:29 51°13.601 2°56.013 303.1 5.9 301 9.5
2005-07-04 06:41:34 51°13.605 2°56.002 304.4 6 302 9.4
2005-07-04 06:41:39 51°13.61 2°55.99 304.8 6 302 9.4
2005-07-04 06:41:44 51°13.614 2°55.98 305.3 6.2 303 9.4
2005-07-04 06:41:49 51°13.62 2°55.967 306.2 6.3 304 9.4
2005-07-04 06:41:54 51°13.625 2°55.955 306.8 6.4 304 9.3
2005-07-04 06:41:59 51°13.63 2°55.943 307.3 6.4 304 9.3
2005-07-04 06:42:04 51°13.635 2°55.931 307.8 6.4 304 9.2
2005-07-04 06:42:09 51°13.64 2°55.92 308.3 6.6 305 9.2
2005-07-04 06:42:14 51°13.646 2°55.907 308.4 6.6 305 9.1
2005-07-04 06:42:19 51°13.651 2°55.895 308.4 6.6 305 9.2
2005-07-04 06:42:24 51°13.656 2°55.884 308.5 6.6 305 9.2
2005-07-04 06:42:29 51°13.662 2°55.87 309.1 6.8 306 9.1
2005-07-04 06:42:34 51°13.668 2°55.858 309.9 6.8 307 9.1
2005-07-04 06:42:39 51°13.673 2°55.846 310.5 6.8 307 9.1
2005-07-04 06:42:44 51°13.679 2°55.835 310.6 6.8 307 9
2005-07-04 06:42:50 51°13.686 2°55.82 310.2 6.9 307 9.1
2005-07-04 06:42:54 51°13.691 2°55.809 310.2 6.9 307 9.6
2005-07-04 06:42:59 51°13.697 2°55.797 310.4 7 307 10.5
2005-07-04 06:43:04 51°13.702 2°55.786 311.2 7.1 308 11.3
2005-07-04 06:43:10 51°13.71 2°55.771 312.3 7.1 308 11.3
2005-07-04 06:43:14 51°13.716 2°55.762 314.4 7.3 313 11.7
2005-07-04 06:43:19 51°13.723 2°55.75 316.4 7.4 315 12.5
2005-07-04 06:43:24 51°13.731 2°55.739 318 7.4 316 11.1
2005-07-04 06:43:29 51°13.739 2°55.727 319.5 7.4 316 9.8
2005-07-04 06:43:34 51°13.746 2°55.717 321.2 7.4 316 9.7
2005-07-04 06:43:39 51°13.755 2°55.705 322.8 7.4 316 9.5
2005-07-04 06:43:44 51°13.762 2°55.696 324 7.6 321 9.4
2005-07-04 06:43:49 51°13.772 2°55.684 324.8 7.6 321 9.4
2005-07-04 06:43:54 51°13.78 2°55.674 326 7.6 322 9.5
2005-07-04 06:43:58 51°13.787 2°55.667 327.9 7.6 322 9.6
2005-07-04 06:44:04 51°13.797 2°55.657 330.2 7.7 327 9.9
2005-07-04 06:44:09 51°13.808 2°55.647 331.7 7.7 328 10.6
2005-07-04 06:44:14 51°13.817 2°55.639 333.7 7.8 330 10.1
2005-07-04 06:44:19 51°13.827 2°55.631 335.3 7.8 331 10.1
2005-07-04 06:44:24 51°13.836 2°55.625 337.4 7.8 333 10.4
2005-07-04 06:44:29 51°13.846 2°55.617 338.8 7.9 335 10.2
2005-07-04 06:44:34 51°13.857 2°55.609 339.6 6.5 335 10.7
2005-07-04 06:44:39 51°13.866 2°55.602 339.5 6.5 335 10.2
2005-07-04 06:44:44 51°13.876 2°55.595 339.3 8 335 10.1
2005-07-04 06:44:49 51°13.887 2°55.587 339.6 8 336 10
2005-07-04 06:44:54 51°13.897 2°55.58 339.7 8 336 10.2
2005-07-04 06:45:00 51°13.908 2°55.572 340.1 8 336 9.9
2005-07-04 06:45:04 51°13.916 2°55.566 340.2 8 336 10
2005-07-04 06:45:09 51°13.928 2°55.559 339.6 8 335 9.9
2005-07-04 06:45:14 51°13.938 2°55.552 339.6 8 335 10.2
2005-07-04 06:45:20 51°13.949 2°55.545 340 8 335 10.3
2005-07-04 06:45:24 51°13.957 2°55.539 340.3 8 335 10.7
2005-07-04 06:45:29 51°13.969 2°55.531 339.9 8.1 336 10.7
2005-07-04 06:45:34 51°13.978 2°55.525 339.8 8.1 336 10.9
2005-07-04 06:45:39 51°13.989 2°55.517 340 8.1 337 11
2005-07-04 06:45:44 51°13.998 2°55.51 340.7 8.1 338 11.4
2005-07-04 06:45:50 51°14.01 2°55.502 341.5 8.1 338 11
2005-07-04 06:45:54 51°14.02 2°55.496 342.5 8.1 338 10.7
2005-07-04 06:46:00 51°14.031 2°55.489 342.7 8.1 338 10.9
2005-07-04 06:46:04 51°14.039 2°55.484 342.7 8.1 338 10.8
2005-07-04 06:46:10 51°14.051 2°55.476 342.5 8 338 10.4
2005-07-04 06:46:14 51°14.061 2°55.47 342.1 8 338 10.6
2005-07-04 06:46:18 51°14.069 2°55.464 341.8 8 338 10.8
2005-07-04 06:46:23 51°14.079 2°55.458 341.6 8 338 10.6
2005-07-04 06:46:29 51°14.092 2°55.45 340.5 8.1 336 10.4
2005-07-04 06:46:34 51°14.103 2°55.442 339.7 8.1 336 10.2
2005-07-04 06:46:39 51°14.113 2°55.434 339 8.6 335 10.2
2005-07-04 06:46:44 51°14.124 2°55.426 338.3 8.9 334 10.3
2005-07-04 06:46:49 51°14.136 2°55.415 337.3 8.9 334 10.4
2005-07-04 06:46:54 51°14.148 2°55.405 336 8.9 334 10.6
2005-07-04 06:46:59 51°14.159 2°55.394 334.5 8.9 334 10.5
2005-07-04 06:47:04 51°14.171 2°55.382 333.4 9.7 329 10.5
2005-07-04 06:47:10 51°14.183 2°55.368 332 9.7 329 10.6
2005-07-04 06:47:14 51°14.192 2°55.357 329.5 9.7 329 10.8
2005-07-04 06:47:19 51°14.204 2°55.342 327.4 10 324 10.6
2005-07-04 06:47:24 51°14.215 2°55.328 326.3 10 324 10.7
2005-07-04 06:47:29 51°14.225 2°55.313 325.1 10.2 319 10.6
2005-07-04 06:47:34 51°14.234 2°55.299 323.2 10.2 317 10.7
2005-07-04 06:47:39 51°14.245 2°55.28 320.6 10.2 317 10.6
2005-07-04 06:47:44 51°14.254 2°55.265 317.8 10.4 313 10.5
2005-07-04 06:47:49 51°14.265 2°55.246 317.1 10.6 313 10.5
2005-07-04 06:47:54 51°14.275 2°55.228 317.2 10.6 313 10.6
2005-07-04 06:47:59 51°14.285 2°55.21 316.5 10.8 311 10.6
2005-07-04 06:48:04 51°14.294 2°55.194 316.3 10.9 312 10.6
2005-07-04 06:48:10 51°14.305 2°55.171 316.3 10.9 311 10.3
2005-07-04 06:48:14 51°14.314 2°55.154 315 11 310 10.2
2005-07-04 06:48:19 51°14.324 2°55.135 313.6 11.1 309 10.2
2005-07-04 06:48:24 51°14.334 2°55.116 313.4 11.1 309 10.2
2005-07-04 06:48:30 51°14.345 2°55.094 313 11.3 308 10.2
2005-07-04 06:48:34 51°14.353 2°55.077 312.8 11.5 309 10.1
2005-07-04 06:48:38 51°14.362 2°55.061 312.8 11.6 309 10
2005-07-04 06:48:44 51°14.373 2°55.038 312.9 11.7 309 10.2
2005-07-04 06:48:48 51°14.381 2°55.022 313.1 11.8 309 10.2
2005-07-04 06:48:54 51°14.394 2°54.996 313.5 11.9 309 10.3
2005-07-04 06:48:59 51°14.405 2°54.975 314 11.9 309 10.3
2005-07-04 06:49:04 51°14.416 2°54.955 314.9 12 310 10.4
2005-07-04 06:49:09 51°14.427 2°54.937 316.1 12.1 312 10.4
2005-07-04 06:49:14 51°14.439 2°54.916 317.8 12.1 313 10.5
2005-07-04 06:49:18 51°14.448 2°54.9 318.8 12.2 313 10.4
2005-07-04 06:49:24 51°14.461 2°54.878 318.7 12.2 313 10.4
2005-07-04 06:49:28 51°14.471 2°54.862 318.6 12.4 314 10.3
2005-07-04 06:49:34 51°14.487 2°54.838 319.7 12.5 315 10.2
2005-07-04 06:49:38 51°14.497 2°54.823 322.7 12.5 315 10
2005-07-04 06:49:43 51°14.511 2°54.806 325.4 12.5 320 10
2005-07-04 06:49:49 51°14.528 2°54.786 327.9 12.6 323 9.9
2005-07-04 06:49:54 51°14.542 2°54.77 329 12.6 323 9.9
2005-07-04 06:49:58 51°14.553 2°54.757 330.2 12.6 323 9.8
2005-07-04 06:50:04 51°14.571 2°54.738 331.5 12.6 323 9.8
2005-07-04 06:50:09 51°14.585 2°54.724 333.3 12.8 327 9.7
2005-07-04 06:50:14 51°14.601 2°54.706 333.2 12.8 327 9.7
2005-07-04 06:50:19 51°14.616 2°54.691 332.8 12.8 327 9.6
2005-07-04 06:50:24 51°14.63 2°54.677 334.5 12.8 327 9.5
2005-07-04 06:50:29 51°14.647 2°54.66 334.9 13.2 328 9.6
2005-07-04 06:50:34 51°14.662 2°54.644 334.9 13.2 327 9.6
2005-07-04 06:50:39 51°14.678 2°54.628 334.6 13.2 327 9.5
2005-07-04 06:50:44 51°14.691 2°54.613 333.8 13.2 327 9.5
2005-07-04 06:50:49 51°14.708 2°54.594 333.4 13.4 326 9.5
2005-07-04 06:50:54 51°14.724 2°54.577 333.1 13.4 326 9.5
2005-07-04 06:51:00 51°14.74 2°54.558 333 13.4 326 9.4
2005-07-04 06:51:04 51°14.753 2°54.545 332.9 13.6 326 9.4
2005-07-04 06:51:09 51°14.77 2°54.527 333.7 13.6 326 9.3
2005-07-04 06:51:14 51°14.786 2°54.51 334.1 13.6 326 9.3
2005-07-04 06:51:19 51°14.802 2°54.493 334.5 13.6 326 9.3
2005-07-04 06:51:24 51°14.815 2°54.477 334.1 13.6 325 9.3
2005-07-04 06:51:29 51°14.832 2°54.458 334 13.6 325 9.2
2005-07-04 06:51:34 51°14.848 2°54.441 333.9 13.6 325 9.3
2005-07-04 06:51:39 51°14.863 2°54.424 333.9 13.6 325 9.1
2005-07-04 06:51:44 51°14.877 2°54.408 334 13.6 325 9.1
2005-07-04 06:51:49 51°14.894 2°54.39 334.1 13.5 326 9
2005-07-04 06:51:54 51°14.909 2°54.373 334.5 13.5 326 8.9
2005-07-04 06:51:59 51°14.925 2°54.357 335.6 13.4 327 8.7
2005-07-04 06:52:04 51°14.94 2°54.341 336.5 13.4 327 8.6
2005-07-04 06:52:09 51°14.956 2°54.326 337.3 13.2 329 8.5
2005-07-04 06:52:14 51°14.972 2°54.312 338.4 13.2 329 8.4
2005-07-04 06:52:19 51°14.988 2°54.297 339.3 13.1 330 8.4
2005-07-04 06:52:24 51°15.003 2°54.283 340.3 13.1 330 8.4
2005-07-04 06:52:30 51°15.021 2°54.268 340.7 13.1 330 8.4
2005-07-04 06:52:34 51°15.035 2°54.255 341.1 13.1 330 8.4
2005-07-04 06:52:39 51°15.051 2°54.24 341.2 13.1 330 8.4
2005-07-04 06:52:44 51°15.065 2°54.227 341.2 13.1 331 8.4
2005-07-04 06:52:48 51°15.078 2°54.215 340.4 13.2 329 8.4
2005-07-04 06:52:54 51°15.098 2°54.195 339.4 13.3 328 8.5
2005-07-04 06:52:59 51°15.112 2°54.18 337.8 13.3 328 8.6
2005-07-04 06:53:04 51°15.127 2°54.163 336.9 13.4 327 8.6
2005-07-04 06:53:09 51°15.144 2°54.145 335.8 13.4 325 8.7
2005-07-04 06:53:14 51°15.159 2°54.127 334.8 13.5 324 8.8
2005-07-04 06:53:19 51°15.174 2°54.11 334.4 13.5 324 8.8
2005-07-04 06:53:23 51°15.186 2°54.096 334.3 13.5 324 8.9
2005-07-04 06:53:29 51°15.205 2°54.076 334.4 13.5 325 8.9
2005-07-04 06:53:34 51°15.221 2°54.059 335.2 13.5 325 9
2005-07-04 06:53:38 51°15.233 2°54.046 336.1 13.5 327 9.1
2005-07-04 06:53:43 51°15.249 2°54.03 336.7 13.5 327 9.1
2005-07-04 06:53:49 51°15.268 2°54.012 337.5 13.6 328 9.1
2005-07-04 06:53:54 51°15.285 2°53.997 338.2 13.6 328 9.3
2005-07-04 06:53:59 51°15.301 2°53.981 338.9 13.6 328 9.3
2005-07-04 06:54:04 51°15.317 2°53.966 339.1 13.6 328 9.4
2005-07-04 06:54:09 51°15.331 2°53.952 338.9 13.6 329 9.5
2005-07-04 06:54:14 51°15.349 2°53.934 338.6 13.6 329 9.6
2005-07-04 06:54:19 51°15.365 2°53.918 337.9 13.6 329 9.7
2005-07-04 06:54:24 51°15.379 2°53.903 337.3 13.6 329 9.8
2005-07-04 06:54:29 51°15.397 2°53.884 336.4 13.7 326 9.9
2005-07-04 06:54:34 51°15.412 2°53.867 335.9 13.7 326 9.8
2005-07-04 06:54:39 51°15.428 2°53.85 335.9 13.7 326 9.8
2005-07-04 06:54:44 51°15.442 2°53.836 335.9 13.7 326 9.9
2005-07-04 06:54:49 51°15.46 2°53.817 336.2 13.7 327 10
2005-07-04 06:54:54 51°15.476 2°53.802 337.2 13.7 327 10.1
2005-07-04 06:54:59 51°15.492 2°53.787 338.5 13.7 327 10.1
2005-07-04 06:55:04 51°15.507 2°53.774 339.5 13.6 330 10.2
2005-07-04 06:55:10 51°15.527 2°53.756 340.4 13.6 331 10.3
2005-07-04 06:55:14 51°15.542 2°53.743 341.1 13.6 331 10.3
2005-07-04 06:55:19 51°15.559 2°53.73 341.5 13.6 331 10.4
2005-07-04 06:55:24 51°15.574 2°53.717 341.8 13.6 332 10.5
2005-07-04 06:55:30 51°15.594 2°53.7 341.8 13.6 332 10.5
2005-07-04 06:55:34 51°15.607 2°53.689 341.9 13.6 332 10.6
2005-07-04 06:55:39 51°15.624 2°53.675 342.1 13.6 333 10.6
2005-07-04 06:55:44 51°15.641 2°53.662 342.4 13.7 333 10.7
2005-07-04 06:55:49 51°15.659 2°53.646 342.6 13.7 333 10.7
2005-07-04 06:55:54 51°15.674 2°53.634 342.9 13.6 333 10.8
2005-07-04 06:55:59 51°15.693 2°53.619 342.9 13.6 333 10.8
2005-07-04 06:56:04 51°15.708 2°53.607 342.9 13.6 333 10.8
2005-07-04 06:56:10 51°15.728 2°53.59 342.8 13.6 333 10.9
2005-07-04 06:56:14 51°15.743 2°53.577 342.5 13.6 333 10.9
2005-07-04 06:56:20 51°15.762 2°53.561 342.5 13.6 333 10.9
2005-07-04 06:56:24 51°15.777 2°53.548 342.7 13.6 333 11
2005-07-04 06:56:29 51°15.792 2°53.536 342.9 13.6 333 11
2005-07-04 06:56:34 51°15.809 2°53.523 342.9 13.5 332 11.1
2005-07-04 06:56:39 51°15.825 2°53.508 342.7 13.4 332 11.1
2005-07-04 06:56:44 51°15.841 2°53.493 342.5 13.4 332 11.1
2005-07-04 06:56:49 51°15.856 2°53.481 342.2 13.3 332 11.2
2005-07-04 06:56:54 51°15.874 2°53.466 342.6 13.3 332 11.2
2005-07-04 06:56:58 51°15.887 2°53.455 342.5 13.3 332 11.3
2005-07-04 06:57:04 51°15.905 2°53.439 342.5 13.3 332 11.3
2005-07-04 06:57:09 51°15.923 2°53.425 342.5 13.3 332 11.3
2005-07-04 06:57:14 51°15.939 2°53.412 343.3 13.2 333 11.4
2005-07-04 06:57:19 51°15.956 2°53.399 343.6 13.3 333 11.4
2005-07-04 06:57:24 51°15.972 2°53.385 343.5 13.3 333 11.4
2005-07-04 06:57:29 51°15.989 2°53.37 342.8 13.3 332 11.5
2005-07-04 06:57:34 51°16.005 2°53.356 342.4 13.3 332 11.5
2005-07-04 06:57:38 51°16.018 2°53.345 342.2 13.4 331 11.6
2005-07-04 06:57:44 51°16.036 2°53.329 342.2 13.4 331 11.6
2005-07-04 06:57:50 51°16.056 2°53.312 342.2 13.4 331 11.7
2005-07-04 06:57:54 51°16.069 2°53.301 342.5 13.4 332 11.7
2005-07-04 06:57:59 51°16.087 2°53.286 342.9 13.4 333 11.7
2005-07-04 06:58:04 51°16.102 2°53.274 343.3 13.4 333 11.7
2005-07-04 06:58:09 51°16.12 2°53.262 343.3 13.4 333 11.8
2005-07-04 06:58:14 51°16.137 2°53.246 343.4 13.4 333 11.7
2005-07-04 06:58:19 51°16.153 2°53.232 343.3 13.4 333 11.7
2005-07-04 06:58:24 51°16.168 2°53.22 343.3 13.5 333 11.8
2005-07-04 06:58:29 51°16.186 2°53.205 344 13.5 333 11.7
2005-07-04 06:58:34 51°16.203 2°53.193 344.4 13.5 333 11.9
2005-07-04 06:58:39 51°16.22 2°53.18 344.8 13.4 335 12
2005-07-04 06:58:44 51°16.237 2°53.167 345 13.4 335 11.9
2005-07-04 06:58:49 51°16.252 2°53.156 345.1 13.4 335 11.9
2005-07-04 06:58:54 51°16.271 2°53.142 345 13.4 334 11.9
2005-07-04 06:58:59 51°16.288 2°53.13 344.8 13.4 335 12
2005-07-04 06:59:04 51°16.304 2°53.117 344.7 13.4 335 12.1
2005-07-04 06:59:08 51°16.316 2°53.108 344.7 13.4 335 12
2005-07-04 06:59:14 51°16.338 2°53.091 344.8 13.5 335 12.1
2005-07-04 06:59:19 51°16.353 2°53.08 344.7 13.5 335 12.1
2005-07-04 06:59:24 51°16.37 2°53.068 344.7 13.4 335 12.1
2005-07-04 06:59:29 51°16.389 2°53.054 344.7 13.4 335 12
2005-07-04 06:59:34 51°16.405 2°53.042 344.7 13.5 336 12
2005-07-04 06:59:39 51°16.421 2°53.031 344.8 13.4 336 12
2005-07-04 06:59:44 51°16.44 2°53.019 345.3 13.4 337 11.9
2005-07-04 06:59:48 51°16.453 2°53.01 345.8 13.3 337 11.9
2005-07-04 06:59:54 51°16.472 2°52.997 345.6 13.3 337 11.9
2005-07-04 06:59:59 51°16.491 2°52.984 345.2 13.3 337 11.9
2005-07-04 07:00:04 51°16.506 2°52.974 344.7 13.3 337 11.8
2005-07-04 07:00:09 51°16.524 2°52.961 344.7 13.3 337 11.8
2005-07-04 07:00:14 51°16.542 2°52.95 344.7 13.2 336 11.7
2005-07-04 07:00:18 51°16.555 2°52.941 344.3 13.2 336 11.6
2005-07-04 07:00:24 51°16.573 2°52.927 344.1 13.2 336 11.5
2005-07-04 07:00:28 51°16.589 2°52.916 344 13.2 336 11.4
2005-07-04 07:00:34 51°16.609 2°52.901 344 13.1 336 11.4
2005-07-04 07:00:39 51°16.626 2°52.889 344 13.2 336 11.3
2005-07-04 07:00:44 51°16.642 2°52.878 343.9 13.2 336 11.3
2005-07-04 07:00:49 51°16.659 2°52.867 344 13.1 337 11.2
2005-07-04 07:00:54 51°16.676 2°52.856 344.2 13.1 337 11.1
2005-07-04 07:00:59 51°16.691 2°52.845 344.3 13.1 337 11
2005-07-04 07:01:04 51°16.707 2°52.834 344.5 13.1 337 10.8
2005-07-04 07:01:09 51°16.724 2°52.822 344.3 13.1 336 10.6
2005-07-04 07:01:14 51°16.742 2°52.81 343.9 13.1 336 10.5
2005-07-04 07:01:19 51°16.759 2°52.798 343.8 13 336 10.2
2005-07-04 07:01:24 51°16.773 2°52.788 343.6 13 336 9.9
2005-07-04 07:01:29 51°16.791 2°52.776 343.6 13 336 9.6
2005-07-04 07:01:34 51°16.807 2°52.764 343.6 12.9 336 9.6
2005-07-04 07:01:39 51°16.822 2°52.754 343.5 12.8 336 9.6
2005-07-04 07:01:44 51°16.838 2°52.743 343.5 12.8 336 9.6
2005-07-04 07:01:49 51°16.856 2°52.73 343.3 12.8 336 9.4
2005-07-04 07:01:54 51°16.872 2°52.719 343.4 12.8 336 9.3
2005-07-04 07:01:59 51°16.888 2°52.707 343.6 12.8 336 9.4
2005-07-04 07:02:04 51°16.903 2°52.695 343.6 12.8 336 9.4
2005-07-04 07:02:09 51°16.921 2°52.683 343.7 12.8 336 9.5
2005-07-04 07:02:14 51°16.938 2°52.671 343.7 12.8 336 9.6
2005-07-04 07:02:19 51°16.953 2°52.661 343.7 12.9 336 9.8
2005-07-04 07:02:23 51°16.967 2°52.651 343.5 12.9 336 9.9
2005-07-04 07:02:28 51°16.982 2°52.641 343.4 13 335 10
2005-07-04 07:02:34 51°17.003 2°52.625 343.3 13 335 10.1
2005-07-04 07:02:39 51°17.018 2°52.614 343 13 335 10
2005-07-04 07:02:43 51°17.032 2°52.602 343 13 335 9.8
2005-07-04 07:02:49 51°17.052 2°52.588 342.9 12.9 335 9.7
2005-07-04 07:02:54 51°17.068 2°52.576 343.3 12.9 335 9.6
2005-07-04 07:02:58 51°17.082 2°52.566 343.8 12.9 336 9.7
2005-07-04 07:03:04 51°17.1 2°52.554 344.1 12.8 336 9.7
2005-07-04 07:03:09 51°17.116 2°52.544 344.4 12.8 336 9.7
2005-07-04 07:03:14 51°17.133 2°52.532 344.4 12.8 336 9.6
2005-07-04 07:03:19 51°17.149 2°52.52 344.3 12.8 336 9.8
2005-07-04 07:03:24 51°17.166 2°52.508 344.2 12.9 336 9.8
2005-07-04 07:03:28 51°17.177 2°52.5 343.9 12.9 335 9.8
2005-07-04 07:03:34 51°17.198 2°52.485 343.3 12.9 335 10
2005-07-04 07:03:39 51°17.213 2°52.474 343.3 12.9 335 10
2005-07-04 07:03:44 51°17.229 2°52.463 343.5 13 336 10.1
2005-07-04 07:03:49 51°17.247 2°52.449 344 13 336 10.1
2005-07-04 07:03:54 51°17.264 2°52.438 344.3 13 336 10.1
2005-07-04 07:03:59 51°17.279 2°52.428 344.5 13 336 10.2
2005-07-04 07:04:04 51°17.295 2°52.416 344.6 13 337 10.2
2005-07-04 07:04:10 51°17.316 2°52.403 344.7 13 337 10.4
2005-07-04 07:04:14 51°17.332 2°52.392 344.7 13 337 10.4
2005-07-04 07:04:19 51°17.348 2°52.381 344.8 13 337 10.4
2005-07-04 07:04:24 51°17.363 2°52.373 345.8 13 338 10.3
2005-07-04 07:04:29 51°17.381 2°52.362 347.5 12.9 340 10.4
2005-07-04 07:04:34 51°17.398 2°52.354 348.8 12.8 342 10.4
2005-07-04 07:04:39 51°17.415 2°52.345 350.4 12.8 343 10.4
2005-07-04 07:04:44 51°17.43 2°52.338 351 12.8 343 10.5
2005-07-04 07:04:49 51°17.449 2°52.33 351.8 12.8 343 10.6
2005-07-04 07:04:54 51°17.466 2°52.322 352 12.8 343 10.6
2005-07-04 07:05:00 51°17.484 2°52.313 352 12.8 343 10.5
2005-07-04 07:05:04 51°17.498 2°52.306 351.9 12.8 343 10.4
2005-07-04 07:05:08 51°17.511 2°52.3 351.5 12.8 343 10.5
2005-07-04 07:05:14 51°17.534 2°52.29 351.8 12.8 344 10.6
2005-07-04 07:05:18 51°17.548 2°52.284 352.8 12.8 345 10.6
2005-07-04 07:05:24 51°17.567 2°52.277 353.9 12.8 345 10.6
2005-07-04 07:05:29 51°17.586 2°52.271 354.9 12.8 347 10.4
2005-07-04 07:05:34 51°17.603 2°52.266 355.9 12.7 348 10.5
2005-07-04 07:05:39 51°17.62 2°52.262 358 12.7 348 10.5
2005-07-04 07:05:44 51°17.636 2°52.259 359.2 12.7 348 10.4
2005-07-04 07:05:49 51°17.655 2°52.255 0.2 12.7 348 10.5
2005-07-04 07:05:54 51°17.671 2°52.251 0.7 12.7 353 10.5
2005-07-04 07:05:58 51°17.687 2°52.248 0.8 12.7 353 10.3
2005-07-04 07:06:04 51°17.707 2°52.245 0.9 12.7 353 10.6
2005-07-04 07:06:09 51°17.725 2°52.242 1.6 12.7 354 10.5
2005-07-04 07:06:14 51°17.742 2°52.239 2.1 12.7 354 10.3
2005-07-04 07:06:20 51°17.762 2°52.236 2.5 12.7 354 10.5
2005-07-04 07:06:24 51°17.776 2°52.234 2.9 12.7 355 10.5
2005-07-04 07:06:28 51°17.792 2°52.233 3 12.7 356 10.5
2005-07-04 07:06:34 51°17.813 2°52.23 3.3 12.7 356 10.4
2005-07-04 07:06:39 51°17.829 2°52.228 3.6 12.6 356 10.5
2005-07-04 07:06:44 51°17.846 2°52.226 3.6 12.7 355 10.5
2005-07-04 07:06:48 51°17.86 2°52.224 3.6 12.7 355 10.5
2005-07-04 07:06:54 51°17.883 2°52.221 3.4 12.7 355 10.5
2005-07-04 07:06:59 51°17.9 2°52.218 3.1 12.7 355 10.6
2005-07-04 07:07:04 51°17.916 2°52.215 2.6 12.7 354 10.6
2005-07-04 07:07:08 51°17.931 2°52.213 2.4 12.7 354 10.6
2005-07-04 07:07:14 51°17.952 2°52.21 2.4 12.7 354 10.6
2005-07-04 07:07:19 51°17.97 2°52.207 2.6 12.7 355 10.7
2005-07-04 07:07:24 51°17.986 2°52.205 2.9 12.7 355 10.7
2005-07-04 07:07:29 51°18.005 2°52.202 3.4 12.7 355 10.7
2005-07-04 07:07:34 51°18.023 2°52.2 3.4 12.7 355 10.7
2005-07-04 07:07:39 51°18.041 2°52.197 3.6 12.7 355 10.7
2005-07-04 07:07:44 51°18.056 2°52.195 3.6 12.7 355 10.7
2005-07-04 07:07:48 51°18.07 2°52.193 3.6 12.7 355 10.7
2005-07-04 07:07:54 51°18.093 2°52.19 3.6 12.7 355 10.8
2005-07-04 07:07:59 51°18.111 2°52.188 3.5 12.7 355 10.8
2005-07-04 07:08:04 51°18.127 2°52.185 3.6 12.7 355 10.8
2005-07-04 07:08:09 51°18.146 2°52.183 3.4 12.7 355 10.9
2005-07-04 07:08:14 51°18.164 2°52.18 3.2 12.7 355 10.9
2005-07-04 07:08:19 51°18.181 2°52.177 2.8 12.7 355 10.9
2005-07-04 07:08:24 51°18.197 2°52.174 2.5 12.7 355 11
2005-07-04 07:08:29 51°18.217 2°52.17 2.3 12.8 353 11
2005-07-04 07:08:34 51°18.232 2°52.166 2.2 12.8 353 11.1
2005-07-04 07:08:38 51°18.248 2°52.164 2.1 12.8 354 11.1
2005-07-04 07:08:44 51°18.268 2°52.161 2.3 12.8 354 11.1
2005-07-04 07:08:49 51°18.287 2°52.158 2.6 12.8 354 11.2
2005-07-04 07:08:54 51°18.305 2°52.156 2.9 12.8 355 11.2
2005-07-04 07:08:59 51°18.322 2°52.153 3.2 12.8 355 11.3
2005-07-04 07:09:04 51°18.339 2°52.151 3.2 12.8 355 11.3
2005-07-04 07:09:09 51°18.358 2°52.148 3.2 12.9 354 11.4
2005-07-04 07:09:14 51°18.376 2°52.145 3 12.9 354 11.4
2005-07-04 07:09:18 51°18.39 2°52.143 2.8 12.9 354 11.4
2005-07-04 07:09:24 51°18.409 2°52.139 2.6 12.9 354 11.5
2005-07-04 07:09:29 51°18.429 2°52.135 2.4 12.9 354 11.6
2005-07-04 07:09:34 51°18.446 2°52.132 2.4 12.9 354 11.6
2005-07-04 07:09:39 51°18.464 2°52.129 2.4 12.9 354 11.7
2005-07-04 07:09:44 51°18.48 2°52.126 2.5 12.9 354 11.7
2005-07-04 07:09:48 51°18.496 2°52.124 2.7 12.9 354 11.8
2005-07-04 07:09:54 51°18.518 2°52.121 2.8 12.9 354 11.9
2005-07-04 07:09:59 51°18.536 2°52.118 3 12.8 355 11.9
2005-07-04 07:10:04 51°18.552 2°52.115 2.9 12.8 355 12
2005-07-04 07:10:08 51°18.566 2°52.113 2.8 12.9 354 12
2005-07-04 07:10:14 51°18.589 2°52.109 2.8 12.9 354 12.1
2005-07-04 07:10:18 51°18.603 2°52.107 2.8 12.9 354 12.2
2005-07-04 07:10:24 51°18.624 2°52.103 2.9 12.9 354 12.3
2005-07-04 07:10:29 51°18.641 2°52.101 2.9 12.9 354 12.4
2005-07-04 07:10:34 51°18.66 2°52.097 2.9 12.9 354 12.5
2005-07-04 07:10:38 51°18.674 2°52.095 3 12.9 354 12.6
2005-07-04 07:10:44 51°18.696 2°52.092 3 12.9 354 12.8
2005-07-04 07:10:48 51°18.71 2°52.089 3.2 12.9 354 12.8
2005-07-04 07:10:54 51°18.731 2°52.086 3.1 12.9 354 12.8
2005-07-04 07:10:58 51°18.745 2°52.083 3.1 13 354 13
2005-07-04 07:11:04 51°18.767 2°52.08 2.9 13 354 13.1
2005-07-04 07:11:10 51°18.786 2°52.076 2.7 12.9 354 13.1
2005-07-04 07:11:14 51°18.802 2°52.073 2.4 12.9 353 13.2
2005-07-04 07:11:19 51°18.818 2°52.07 2.2 12.9 353 13.3
2005-07-04 07:11:24 51°18.837 2°52.067 2.5 12.9 353 13.4
2005-07-04 07:11:29 51°18.854 2°52.064 2.7 12.9 354 13.5
2005-07-04 07:11:34 51°18.873 2°52.061 2.8 12.9 354 13.6
2005-07-04 07:11:38 51°18.888 2°52.059 2.9 12.9 353 13.6
2005-07-04 07:11:43 51°18.906 2°52.055 2.8 12.9 353 13.8
2005-07-04 07:11:49 51°18.927 2°52.052 2.7 12.9 354 13.8
2005-07-04 07:11:54 51°18.945 2°52.048 2.8 12.9 354 13.9
2005-07-04 07:11:59 51°18.962 2°52.045 2.8 12.9 354 14
2005-07-04 07:12:04 51°18.979 2°52.043 2.9 12.9 354 14.1
2005-07-04 07:12:08 51°18.993 2°52.04 2.9 13 354 14.2
2005-07-04 07:12:14 51°19.014 2°52.036 2.8 13 354 14.3
2005-07-04 07:12:18 51°19.03 2°52.033 2.6 13 353 14.4
2005-07-04 07:12:24 51°19.05 2°52.029 2.5 13 353 14.5
2005-07-04 07:12:29 51°19.069 2°52.025 2.5 13 353 14.6
2005-07-04 07:12:34 51°19.086 2°52.022 2.4 13 353 14.6
2005-07-04 07:12:38 51°19.102 2°52.019 2.4 13 353 14.6
2005-07-04 07:12:44 51°19.123 2°52.014 2.4 13 353 14.6
2005-07-04 07:12:50 51°19.143 2°52.011 2.4 13 353 14.7
2005-07-04 07:12:54 51°19.159 2°52.008 2.5 12.9 353 15.1
2005-07-04 07:12:59 51°19.176 2°52.005 2.5 13 353 15
2005-07-04 07:13:04 51°19.195 2°52.001 2.4 13 353 15.2
2005-07-04 07:13:09 51°19.213 2°51.998 2.8 13 354 15.3
2005-07-04 07:13:14 51°19.229 2°51.995 2.9 13 354 15.3
2005-07-04 07:13:19 51°19.249 2°51.991 2.9 13 354 15.4
2005-07-04 07:13:24 51°19.266 2°51.989 2.9 13 354 15.4
2005-07-04 07:13:29 51°19.286 2°51.986 2.9 13 354 15.4
2005-07-04 07:13:34 51°19.304 2°51.982 2.9 13 353 15.4
2005-07-04 07:13:39 51°19.32 2°51.979 2.9 13 353 15.5
2005-07-04 07:13:44 51°19.338 2°51.976 2.8 13 354 15.5
2005-07-04 07:13:48 51°19.354 2°51.973 2.9 13 354 15.6
2005-07-04 07:13:54 51°19.375 2°51.969 3 13 354 15.7
2005-07-04 07:13:58 51°19.389 2°51.966 3.1 13 354 15.7
2005-07-04 07:14:04 51°19.409 2°51.962 3.2 13 354 15.7
2005-07-04 07:14:09 51°19.429 2°51.959 3.3 13 354 15.7
2005-07-04 07:14:14 51°19.447 2°51.956 2.9 13 353 15.7
2005-07-04 07:14:20 51°19.467 2°51.952 2.7 13 353 15.7
2005-07-04 07:14:24 51°19.483 2°51.949 2.9 13.1 354 15.8
2005-07-04 07:14:29 51°19.499 2°51.946 2.9 13 353 15.8
2005-07-04 07:14:34 51°19.519 2°51.942 3 13 353 15.8
2005-07-04 07:14:40 51°19.539 2°51.938 2.6 13.1 353 15.9
2005-07-04 07:14:44 51°19.555 2°51.935 2.3 13.1 353 15.8
2005-07-04 07:14:49 51°19.573 2°51.932 2.1 13.1 353 15.8
2005-07-04 07:14:54 51°19.59 2°51.929 2.3 13.1 353 15.7
2005-07-04 07:15:00 51°19.61 2°51.925 2.9 13 354 15.7
2005-07-04 07:15:04 51°19.625 2°51.922 2.9 13 353 15.8
2005-07-04 07:15:09 51°19.644 2°51.918 2.9 13 354 15.9
2005-07-04 07:15:14 51°19.662 2°51.915 2.8 13 353 15.9
2005-07-04 07:15:19 51°19.679 2°51.912 2.7 13 353 15.9
2005-07-04 07:15:24 51°19.698 2°51.909 2.6 13 353 15.9
2005-07-04 07:15:29 51°19.716 2°51.905 2.6 13 353 16
2005-07-04 07:15:34 51°19.734 2°51.902 2.7 13 353 16
2005-07-04 07:15:39 51°19.75 2°51.899 2.6 13 353 15.9
2005-07-04 07:15:44 51°19.77 2°51.895 2.7 13 353 16
2005-07-04 07:15:49 51°19.787 2°51.891 2.9 13 353 15.9
2005-07-04 07:15:54 51°19.805 2°51.888 2.8 13 353 16
2005-07-04 07:15:59 51°19.823 2°51.885 2.8 13 353 15.9
2005-07-04 07:16:04 51°19.839 2°51.882 2.9 13 353 15.9
2005-07-04 07:16:09 51°19.859 2°51.878 3 13 353 15.9
2005-07-04 07:16:14 51°19.877 2°51.875 3.1 13.1 354 16
2005-07-04 07:16:20 51°19.897 2°51.871 3 13.1 354 15.8
2005-07-04 07:16:24 51°19.913 2°51.868 2.9 13.1 353 15.8
2005-07-04 07:16:30 51°19.933 2°51.864 2.8 13.1 353 15.8
2005-07-04 07:16:34 51°19.949 2°51.861 2.5 13.1 353 15.7
2005-07-04 07:16:39 51°19.967 2°51.857 2.5 13.1 353 15.7
2005-07-04 07:16:44 51°19.983 2°51.853 2.4 13.1 353 15.3
2005-07-04 07:16:50 51°20.005 2°51.849 2.2 13.1 353 15.1
2005-07-04 07:16:54 51°20.021 2°51.846 2.2 13.1 353 15.3
2005-07-04 07:16:59 51°20.039 2°51.843 2.6 13.1 353 15.5
2005-07-04 07:17:04 51°20.055 2°51.84 2.9 13.1 353 15.4
2005-07-04 07:17:09 51°20.075 2°51.836 2.9 13.1 353 15.1
2005-07-04 07:17:14 51°20.093 2°51.832 2.8 13.1 353 15
2005-07-04 07:17:20 51°20.112 2°51.828 2.5 13.1 353 15
2005-07-04 07:17:24 51°20.127 2°51.825 2.4 13.1 353 14.9
2005-07-04 07:17:29 51°20.146 2°51.821 2.4 13.1 353 14.7
2005-07-04 07:17:34 51°20.165 2°51.818 2.6 13.1 353 14.6
2005-07-04 07:17:39 51°20.183 2°51.814 2.5 13.1 353 14.6
2005-07-04 07:17:44 51°20.199 2°51.811 2.7 13.1 353 14.4
2005-07-04 07:17:50 51°20.221 2°51.807 2.8 13.1 354 14.2
2005-07-04 07:17:54 51°20.237 2°51.804 3.2 13.1 354 14.1
2005-07-04 07:17:58 51°20.252 2°51.801 3 13.1 354 13.8
2005-07-04 07:18:04 51°20.272 2°51.798 2.9 13.1 354 13.6
2005-07-04 07:18:09 51°20.292 2°51.794 2.9 13.1 353 13.6
2005-07-04 07:18:14 51°20.31 2°51.79 2.9 13.1 353 13.1
2005-07-04 07:18:19 51°20.326 2°51.787 2.8 13.1 353 13.3
2005-07-04 07:18:24 51°20.344 2°51.784 2.8 13.1 353 13.4
2005-07-04 07:18:29 51°20.364 2°51.78 2.9 13.1 353 13.5
2005-07-04 07:18:34 51°20.382 2°51.777 2.9 13.1 354 13.4
2005-07-04 07:18:38 51°20.396 2°51.774 3 13.1 354 13.3
2005-07-04 07:18:44 51°20.418 2°51.771 3.2 13.1 354 13.3
2005-07-04 07:18:49 51°20.436 2°51.767 3.2 13.1 354 13.3
2005-07-04 07:18:54 51°20.454 2°51.764 3.3 13.1 354 13.3
2005-07-04 07:18:59 51°20.472 2°51.761 3.4 13.1 354 13.5
2005-07-04 07:19:04 51°20.49 2°51.758 3.4 13.1 354 13.7
2005-07-04 07:19:09 51°20.508 2°51.755 3.4 13.1 354 14
2005-07-04 07:19:14 51°20.526 2°51.751 3.3 13.1 354 14
2005-07-04 07:19:20 51°20.546 2°51.748 3 13.1 353 13.9
2005-07-04 07:19:24 51°20.562 2°51.744 3 13.1 353 14.2
2005-07-04 07:19:30 51°20.582 2°51.74 2.7 13.1 353 14.2
2005-07-04 07:19:34 51°20.598 2°51.737 2.3 13.2 352 14.4
2005-07-04 07:19:38 51°20.612 2°51.734 2.1 13.2 352 14.3
2005-07-04 07:19:44 51°20.634 2°51.729 2 13.2 352 14.5
2005-07-04 07:19:49 51°20.652 2°51.725 1.9 13.2 352 14.6
2005-07-04 07:19:54 51°20.671 2°51.722 2.2 13.2 353 14.9
2005-07-04 07:19:58 51°20.685 2°51.718 2.7 13.1 353 14.9
2005-07-04 07:20:04 51°20.706 2°51.714 2.6 13.1 353 15.3
2005-07-04 07:20:10 51°20.726 2°51.71 2.5 13.1 353 15.4
2005-07-04 07:20:14 51°20.743 2°51.707 2.7 13.1 353 16
2005-07-04 07:20:19 51°20.761 2°51.704 2.8 13.1 353 15.8
2005-07-04 07:20:24 51°20.777 2°51.701 2.9 13.1 353 16.4
2005-07-04 07:20:29 51°20.797 2°51.697 3.1 13.1 354 16.4
2005-07-04 07:20:34 51°20.815 2°51.694 3.3 13.1 354 16.6
2005-07-04 07:20:39 51°20.833 2°51.69 3.3 13.1 354 16.9
2005-07-04 07:20:44 51°20.852 2°51.687 2.8 13.1 353 17
2005-07-04 07:20:49 51°20.87 2°51.683 2.6 13.1 353 17
2005-07-04 07:20:54 51°20.889 2°51.679 2.4 13.1 353 17.2
2005-07-04 07:20:58 51°20.905 2°51.676 2.4 13.3 353 17.4
2005-07-04 07:21:04 51°20.928 2°51.672 2.3 13.3 353 17.3
2005-07-04 07:21:09 51°20.944 2°51.668 2.2 13.3 353 17.5
2005-07-04 07:21:14 51°20.96 2°51.664 2.2 13.3 352 17.6
2005-07-04 07:21:19 51°20.978 2°51.66 2.2 13.3 353 17.7
2005-07-04 07:21:24 51°20.994 2°51.656 2.2 13.3 352 17.9
2005-07-04 07:21:30 51°21.017 2°51.651 2.1 13.3 352 18
2005-07-04 07:21:34 51°21.034 2°51.648 2.1 13.3 352 18.1
2005-07-04 07:21:39 51°21.054 2°51.644 2 13.4 352 18.3
2005-07-04 07:21:44 51°21.068 2°51.64 1.9 13.4 352 18.5
2005-07-04 07:21:49 51°21.088 2°51.635 1.9 13.2 352 18.7
2005-07-04 07:21:54 51°21.106 2°51.632 1.9 13.2 352 19
2005-07-04 07:21:59 51°21.123 2°51.628 2.1 13.2 352 19.2
2005-07-04 07:22:04 51°21.143 2°51.623 2.1 13.2 352 19.4
2005-07-04 07:22:09 51°21.161 2°51.619 2.1 13.2 352 19.6
2005-07-04 07:22:14 51°21.179 2°51.615 2.3 13.2 353 19.9
2005-07-04 07:22:18 51°21.193 2°51.613 2.5 13.2 352 20.2
2005-07-04 07:22:24 51°21.213 2°51.609 2.5 13.2 352 20.4
2005-07-04 07:22:30 51°21.235 2°51.604 2.6 13.2 353 20.6
2005-07-04 07:22:34 51°21.252 2°51.6 2.7 13.2 353 20.9
2005-07-04 07:22:39 51°21.27 2°51.596 2.8 13.3 353 21.2
2005-07-04 07:22:44 51°21.287 2°51.592 2.9 13.3 353 21.4
2005-07-04 07:22:50 51°21.309 2°51.588 2.9 13.3 353 21.7
2005-07-04 07:22:54 51°21.324 2°51.585 2.9 13.3 353 21.8
2005-07-04 07:23:00 51°21.345 2°51.581 2.9 13.3 353 22
2005-07-04 07:23:04 51°21.359 2°51.578 2.9 13.3 353 22.2
2005-07-04 07:23:09 51°21.379 2°51.574 2.9 13.3 352 22.4
2005-07-04 07:23:14 51°21.398 2°51.57 2.6 13.3 352 22.5
2005-07-04 07:23:20 51°21.418 2°51.565 2.2 13.3 352 22.6
2005-07-04 07:23:24 51°21.434 2°51.561 2 13.3 352 22.8
2005-07-04 07:23:29 51°21.451 2°51.558 1.9 13.3 352 23
2005-07-04 07:23:34 51°21.471 2°51.553 1.5 13.4 351 23.2
2005-07-04 07:23:39 51°21.489 2°51.549 1.4 13.4 351 23.2
2005-07-04 07:23:44 51°21.505 2°51.545 1.6 13.4 351 23.4
2005-07-04 07:23:50 51°21.527 2°51.54 1.7 13.4 352 23.5
2005-07-04 07:23:54 51°21.544 2°51.537 1.7 13.4 352 23.7
2005-07-04 07:24:00 51°21.564 2°51.532 2.1 13.3 352 23.8
2005-07-04 07:24:04 51°21.578 2°51.529 2.2 13.3 352 24
2005-07-04 07:24:08 51°21.593 2°51.526 2.3 13.3 352 24.1
2005-07-04 07:24:14 51°21.617 2°51.521 2.3 13.3 352 24.2
2005-07-04 07:24:18 51°21.632 2°51.518 2.2 13.3 352 24
2005-07-04 07:24:24 51°21.654 2°51.513 2.1 13.3 352 24.2
2005-07-04 07:24:30 51°21.674 2°51.508 1.9 13.3 352 24.1
2005-07-04 07:24:34 51°21.69 2°51.504 1.5 13.3 352 24.2
2005-07-04 07:24:39 51°21.709 2°51.499 1.1 13.3 352 24.2
2005-07-04 07:24:44 51°21.725 2°51.495 1.2 13.3 351 24.2
2005-07-04 07:24:49 51°21.744 2°51.491 1.4 13.3 351 24.3
2005-07-04 07:24:54 51°21.763 2°51.488 2.1 13.3 351 24.3
2005-07-04 07:25:00 51°21.784 2°51.486 3.3 13.3 351 24.3
2005-07-04 07:25:04 51°21.798 2°51.483 4.7 13.3 351 24.3
2005-07-04 07:25:08 51°21.813 2°51.482 5.8 13.2 357 24.3
2005-07-04 07:25:14 51°21.837 2°51.48 6.6 13.2 357 24.2
2005-07-04 07:25:19 51°21.853 2°51.478 7.2 13.2 357 24.2
2005-07-04 07:25:24 51°21.873 2°51.477 7.3 13.2 357 24.3
2005-07-04 07:25:29 51°21.891 2°51.476 7.2 13.2 357 24.3
2005-07-04 07:25:34 51°21.909 2°51.475 7.3 13.2 357 24.2
2005-07-04 07:25:38 51°21.924 2°51.474 7.6 13.2 358 24.1
2005-07-04 07:25:44 51°21.945 2°51.471 7.7 13.2 358 24.2
2005-07-04 07:25:49 51°21.964 2°51.47 7.7 13.3 358 24.1
2005-07-04 07:25:54 51°21.984 2°51.469 7.9 13.3 358 24.1
2005-07-04 07:25:59 51°22.003 2°51.467 7.9 13.3 358 24
2005-07-04 07:26:04 51°22.02 2°51.466 7.8 13.3 357 24
2005-07-04 07:26:09 51°22.039 2°51.465 7.5 13.3 358 24
2005-07-04 07:26:14 51°22.057 2°51.464 7.5 13.3 358 23.9
2005-07-04 07:26:19 51°22.076 2°51.462 7.2 13.3 358 23.9
2005-07-04 07:26:24 51°22.092 2°51.461 7.2 13.4 357 23.9
2005-07-04 07:26:28 51°22.107 2°51.459 7.2 13.4 357 23.8
2005-07-04 07:26:34 51°22.131 2°51.458 7.2 13.4 357 23.6
2005-07-04 07:26:38 51°22.146 2°51.456 7 13.4 357 23.5
2005-07-04 07:26:44 51°22.166 2°51.454 6.9 13.4 357 23.3
2005-07-04 07:26:49 51°22.187 2°51.452 6.8 13.4 356 23.2
2005-07-04 07:26:54 51°22.205 2°51.45 6.9 13.4 356 23.2
2005-07-04 07:27:00 51°22.225 2°51.448 7 13.4 356 23.3
2005-07-04 07:27:04 51°22.242 2°51.446 7 13.4 356 23.4
2005-07-04 07:27:08 51°22.257 2°51.445 6.7 13.4 357 23.4
2005-07-04 07:27:14 51°22.279 2°51.443 6.9 13.4 357 23.3
2005-07-04 07:27:18 51°22.293 2°51.442 7.2 13.4 357 23.4
2005-07-04 07:27:23 51°22.312 2°51.441 7.3 13.3 357 23.6
2005-07-04 07:27:28 51°22.329 2°51.44 7.8 13.3 357 23.7
2005-07-04 07:27:34 51°22.353 2°51.44 8.1 13.3 358 23.7
2005-07-04 07:27:40 51°22.373 2°51.439 8.7 13.3 358 23.8
2005-07-04 07:27:44 51°22.389 2°51.44 9.3 13.3 -999 23.8
2005-07-04 07:27:49 51°22.408 2°51.439 10.1 13.3 -999 23.8
2005-07-04 07:27:54 51°22.426 2°51.439 10.1 13.2 -999 23.4
2005-07-04 07:27:58 51°22.441 2°51.439 10 13.2 359 23.2
2005-07-04 07:28:04 51°22.461 2°51.439 9.6 13.2 -999 23
2005-07-04 07:28:09 51°22.481 2°51.439 9.7 13.2 -999 23.1
2005-07-04 07:28:14 51°22.499 2°51.439 10.2 13.2 -999 23
2005-07-04 07:28:20 51°22.519 2°51.439 10.4 13.2 -999 23.1
2005-07-04 07:28:24 51°22.534 2°51.439 10.6 13.2 1 23.2
2005-07-04 07:28:29 51°22.554 2°51.44 10.7 13.2 -999 23.2
2005-07-04 07:28:34 51°22.572 2°51.44 10.8 13.2 -999 23.2
2005-07-04 07:28:39 51°22.59 2°51.441 10.8 13.2 -999 23.3
2005-07-04 07:28:44 51°22.607 2°51.441 11 13.2 2 23.2
2005-07-04 07:28:49 51°22.627 2°51.441 10.8 13.2 -999 23.1
2005-07-04 07:28:54 51°22.645 2°51.441 10.6 13.2 -999 23.3
2005-07-04 07:28:58 51°22.66 2°51.442 10.4 13.2 -999 23.2
2005-07-04 07:29:04 51°22.68 2°51.442 10.3 13.2 1 23.1
2005-07-04 07:29:09 51°22.7 2°51.442 10 13.2 1 23.1
2005-07-04 07:29:14 51°22.719 2°51.442 9.8 13.2 1 23
2005-07-04 07:29:18 51°22.733 2°51.442 10.3 13.2 -999 23.3
2005-07-04 07:29:24 51°22.753 2°51.442 10.5 13.2 -999 23
2005-07-04 07:29:29 51°22.773 2°51.443 10.7 13.2 1 23.3
2005-07-04 07:29:34 51°22.792 2°51.444 10.7 13.2 1 23.3
2005-07-04 07:29:39 51°22.81 2°51.444 10.8 13.2 1 23
2005-07-04 07:29:44 51°22.828 2°51.444 10.1 13.2 1 23.3
2005-07-04 07:29:49 51°22.846 2°51.444 10.1 13.1 1 23.2
2005-07-04 07:29:54 51°22.864 2°51.444 10.1 13.1 -999 22.3
2005-07-04 07:29:59 51°22.881 2°51.444 10.1 13 1 23.3
2005-07-04 07:30:04 51°22.898 2°51.444 10.2 12.9 -999 23.1
2005-07-04 07:30:09 51°22.916 2°51.445 10.2 12.8 1 23
2005-07-04 07:30:14 51°22.936 2°51.445 10.2 12.8 1 22.8
2005-07-04 07:30:18 51°22.95 2°51.444 10.1 12.8 -999 22.5
2005-07-04 07:30:24 51°22.969 2°51.445 10.1 12.8 -999 22.4
2005-07-04 07:30:29 51°22.989 2°51.446 10.8 12.8 -999 22.2
2005-07-04 07:30:34 51°23.007 2°51.447 11.3 12.7 2 21.3
2005-07-04 07:30:38 51°23.021 2°51.448 12 12.8 2 20.8
2005-07-04 07:30:44 51°23.04 2°51.45 12.3 12.8 2 20.8
2005-07-04 07:30:49 51°23.059 2°51.452 12.4 12.8 3 21.4
2005-07-04 07:30:54 51°23.077 2°51.453 12.5 12.8 3 21.2
2005-07-04 07:31:00 51°23.097 2°51.455 12.9 12.8 3 20.6
2005-07-04 07:31:04 51°23.111 2°51.456 12.8 12.8 3 18.1
2005-07-04 07:31:09 51°23.13 2°51.458 12.9 12.8 3 18.1
2005-07-04 07:31:14 51°23.148 2°51.459 12.9 12.8 3 15.7
2005-07-04 07:31:19 51°23.165 2°51.462 13 12.8 3 16
2005-07-04 07:31:24 51°23.181 2°51.464 13.3 12.6 3 15.6
2005-07-04 07:31:30 51°23.202 2°51.466 13.4 12.6 4 15.6
2005-07-04 07:31:34 51°23.217 2°51.468 13.4 12.6 4 15.8
2005-07-04 07:31:38 51°23.231 2°51.47 13.7 12.5 5 14.3
2005-07-04 07:31:44 51°23.25 2°51.472 13.4 12.5 5 14.4
2005-07-04 07:31:48 51°23.264 2°51.474 13.2 12.4 5 15
2005-07-04 07:31:54 51°23.286 2°51.476 13.1 12.4 5 15.4
2005-07-04 07:31:59 51°23.304 2°51.479 12.8 12.4 5 15.2
2005-07-04 07:32:04 51°23.319 2°51.48 12.9 12.5 4 14.5
2005-07-04 07:32:09 51°23.338 2°51.482 12.6 12.5 4 14.8
2005-07-04 07:32:14 51°23.355 2°51.484 12.4 12.5 4 13.9
2005-07-04 07:32:20 51°23.374 2°51.486 12.3 12.4 4 15.3
2005-07-04 07:32:24 51°23.388 2°51.487 12.3 12.5 4 15.5
2005-07-04 07:32:27 51°23.399 2°51.489 12.3 12.5 4 15.6
2005-07-04 07:32:34 51°23.423 2°51.492 12.7 12.5 5 15.5
2005-07-04 07:32:39 51°23.442 2°51.494 12.7 12.5 4 14.3
2005-07-04 07:32:44 51°23.457 2°51.495 12.5 12.5 3 14.9
2005-07-04 07:32:48 51°23.472 2°51.497 12 12.5 4 15.8
2005-07-04 07:32:54 51°23.493 2°51.499 12 12.5 4 16.4
2005-07-04 07:32:59 51°23.509 2°51.501 12.3 12.5 4 16.1
2005-07-04 07:33:04 51°23.526 2°51.503 12.8 12.6 4 15.6
2005-07-04 07:33:09 51°23.545 2°51.506 12.8 12.5 4 15.3
2005-07-04 07:33:14 51°23.562 2°51.507 12.6 12.5 4 16.3
2005-07-04 07:33:20 51°23.581 2°51.509 12.2 12.5 4 16.4
2005-07-04 07:33:24 51°23.595 2°51.511 12.3 12.5 4 16.8
2005-07-04 07:33:30 51°23.616 2°51.513 12.3 12.5 4 16.7
2005-07-04 07:33:34 51°23.631 2°51.515 12.3 12.5 4 16.8
2005-07-04 07:33:39 51°23.649 2°51.516 12.3 12.5 4 16.5
2005-07-04 07:33:44 51°23.664 2°51.518 12.2 12.5 4 16
2005-07-04 07:33:49 51°23.683 2°51.52 12.3 12.5 4 16.2
2005-07-04 07:33:54 51°23.701 2°51.521 12.2 12.5 4 15.1
2005-07-04 07:34:00 51°23.72 2°51.522 12.1 12.5 3 13.6
2005-07-04 07:34:04 51°23.734 2°51.523 11.4 12.5 2 15.3
2005-07-04 07:34:09 51°23.753 2°51.525 11.4 12.5 3 16.1
2005-07-04 07:34:14 51°23.77 2°51.527 11.7 12.5 3 16.9
2005-07-04 07:34:18 51°23.784 2°51.528 12 12.5 4 17.7
2005-07-04 07:34:24 51°23.803 2°51.529 12.2 12.6 3 18
2005-07-04 07:34:30 51°23.824 2°51.531 11.6 12.6 4 18.3
2005-07-04 07:34:34 51°23.84 2°51.533 11.9 12.6 4 18.5
2005-07-04 07:34:38 51°23.854 2°51.535 12.3 12.6 3 18.9
2005-07-04 07:34:44 51°23.873 2°51.536 12.4 12.6 3 19.1
2005-07-04 07:34:49 51°23.892 2°51.539 12.3 12.6 3 19.4
2005-07-04 07:34:54 51°23.91 2°51.54 12.5 12.6 3 19.7
2005-07-04 07:35:00 51°23.929 2°51.542 12.4 12.6 3 19.7
2005-07-04 07:35:04 51°23.945 2°51.544 12.5 12.6 3 19.7
2005-07-04 07:35:09 51°23.961 2°51.546 12.5 12.6 3 19.6
2005-07-04 07:35:14 51°23.98 2°51.548 12.5 12.6 4 17.2
2005-07-04 07:35:19 51°23.997 2°51.549 12.6 12.6 3 18.9
2005-07-04 07:35:24 51°24.013 2°51.551 12.4 12.6 3 20
2005-07-04 07:35:29 51°24.032 2°51.552 12.5 12.6 3 20.5
2005-07-04 07:35:34 51°24.05 2°51.554 12.8 12.6 3 20.4
2005-07-04 07:35:40 51°24.069 2°51.556 12.2 12.7 3 20.6
2005-07-04 07:35:44 51°24.085 2°51.557 11.9 12.7 3 20.7
2005-07-04 07:35:49 51°24.103 2°51.558 11.3 12.8 2 20.2
2005-07-04 07:35:54 51°24.12 2°51.559 10.8 12.8 2 19.8
2005-07-04 07:35:59 51°24.138 2°51.559 10.5 12.8 2 20.2
2005-07-04 07:36:04 51°24.154 2°51.56 10.1 12.8 2 19.6
2005-07-04 07:36:09 51°24.171 2°51.56 10 12.7 1 19.8
2005-07-04 07:36:14 51°24.191 2°51.561 10.2 12.7 1 19.9
2005-07-04 07:36:19 51°24.208 2°51.561 10 12.7 1 18.3
2005-07-04 07:36:24 51°24.226 2°51.561 10.1 12.7 1 19.4
2005-07-04 07:36:29 51°24.242 2°51.562 9.9 12.7 -999 20.3
2005-07-04 07:36:34 51°24.261 2°51.562 10 12.7 -999 21.2
2005-07-04 07:36:39 51°24.279 2°51.563 10.1 12.7 2 21.5
2005-07-04 07:36:44 51°24.296 2°51.564 10.2 12.7 1 21.7
2005-07-04 07:36:49 51°24.314 2°51.564 10.1 12.7 1 21.7
2005-07-04 07:36:54 51°24.331 2°51.565 9.9 12.7 1 21.6
2005-07-04 07:36:59 51°24.349 2°51.565 10.1 12.7 1 21.6
2005-07-04 07:37:04 51°24.367 2°51.566 10.1 12.8 1 21.6
2005-07-04 07:37:10 51°24.386 2°51.567 10.3 12.8 1 21.6
2005-07-04 07:37:14 51°24.402 2°51.567 10.6 12.7 2 21.9
2005-07-04 07:37:18 51°24.416 2°51.567 10.1 12.7 1 22
2005-07-04 07:37:24 51°24.436 2°51.568 10 12.7 1 22
2005-07-04 07:37:30 51°24.457 2°51.569 10.4 12.7 1 22.1
2005-07-04 07:37:34 51°24.473 2°51.569 10.5 12.7 1 21.9
2005-07-04 07:37:39 51°24.49 2°51.57 10.1 12.7 1 22
2005-07-04 07:37:44 51°24.508 2°51.57 10.1 12.7 1 22.1
2005-07-04 07:37:49 51°24.524 2°51.57 10.2 12.7 1 22.2
2005-07-04 07:37:54 51°24.541 2°51.571 10.3 12.7 1 22.3
2005-07-04 07:38:00 51°24.563 2°51.571 10.4 12.7 1 22.4
2005-07-04 07:38:04 51°24.579 2°51.572 10.4 12.7 1 22.5
2005-07-04 07:38:10 51°24.598 2°51.573 10.3 12.8 1 22.5
2005-07-04 07:38:14 51°24.614 2°51.573 10.3 12.8 1 22.5
2005-07-04 07:38:18 51°24.628 2°51.573 10.4 12.8 1 22.5
2005-07-04 07:38:24 51°24.648 2°51.574 10.4 12.8 1 22.4
2005-07-04 07:38:29 51°24.667 2°51.574 10.4 12.8 1 22.5
2005-07-04 07:38:34 51°24.685 2°51.575 10.4 12.8 -999 22.5
2005-07-04 07:38:39 51°24.703 2°51.576 10.4 12.8 1 22.5
2005-07-04 07:38:44 51°24.719 2°51.576 10.5 12.9 1 22.4
2005-07-04 07:38:50 51°24.74 2°51.577 10.6 12.9 1 22.4
2005-07-04 07:38:54 51°24.756 2°51.577 10.5 12.9 1 22.6
2005-07-04 07:38:59 51°24.773 2°51.577 10.5 12.8 1 22.7
2005-07-04 07:39:04 51°24.79 2°51.578 10.2 12.8 -999 22.6
2005-07-04 07:39:09 51°24.81 2°51.578 10.4 12.8 -999 22.8
2005-07-04 07:39:14 51°24.828 2°51.579 10.4 12.8 -999 22.9
2005-07-04 07:39:20 51°24.847 2°51.579 10.7 12.9 1 23
2005-07-04 07:39:24 51°24.861 2°51.579 10 12.8 -999 23.2
2005-07-04 07:39:29 51°24.881 2°51.579 10.1 12.8 -999 23.2
2005-07-04 07:39:34 51°24.899 2°51.58 10.1 12.8 -999 23.1
2005-07-04 07:39:39 51°24.916 2°51.58 10.2 12.8 1 23.3
2005-07-04 07:39:44 51°24.933 2°51.581 10.2 12.8 -999 23.4
2005-07-04 07:39:49 51°24.952 2°51.58 10.2 12.8 -999 23.3
2005-07-04 07:39:54 51°24.97 2°51.581 9.9 12.9 -999 23.3
2005-07-04 07:40:00 51°24.99 2°51.58 9.6 12.9 -999 23.3
2005-07-04 07:40:04 51°25.004 2°51.581 9.5 12.9 -999 23.3
2005-07-04 07:40:10 51°25.025 2°51.581 9.5 12.9 -999 23.3
2005-07-04 07:40:14 51°25.041 2°51.581 9.4 12.8 -999 23.2
2005-07-04 07:40:19 51°25.057 2°51.581 9.4 12.8 -999 23.1
2005-07-04 07:40:25 51°25.079 2°51.581 9.3 12.8 -999 23.2
2005-07-04 07:40:29 51°25.094 2°51.581 9.7 12.8 -999 23.2
2005-07-04 07:40:34 51°25.112 2°51.581 9.7 12.8 1 23.1
2005-07-04 07:40:39 51°25.128 2°51.582 9.8 12.8 1 23.2
2005-07-04 07:40:43 51°25.144 2°51.582 9.9 12.8 1 23.1
2005-07-04 07:40:49 51°25.165 2°51.583 10 12.8 1 23
2005-07-04 07:40:54 51°25.183 2°51.583 10.1 12.7 1 23.1
2005-07-04 07:40:59 51°25.201 2°51.584 10.1 12.8 1 23.1
2005-07-04 07:41:04 51°25.216 2°51.584 10 12.8 1 23.1
2005-07-04 07:41:09 51°25.236 2°51.584 9.7 12.8 -999 23
2005-07-04 07:41:14 51°25.254 2°51.584 10 12.8 1 23
2005-07-04 07:41:19 51°25.271 2°51.585 10 12.8 1 23.1
2005-07-04 07:41:24 51°25.287 2°51.585 10 12.7 1 23.2
2005-07-04 07:41:29 51°25.307 2°51.586 10.2 12.7 1 23.3
2005-07-04 07:41:34 51°25.324 2°51.586 10.1 12.8 1 23.3
2005-07-04 07:41:40 51°25.344 2°51.587 9.7 12.8 1 23.3
2005-07-04 07:41:44 51°25.358 2°51.587 9.8 12.8 1 23.2
2005-07-04 07:41:50 51°25.379 2°51.588 10 12.8 1 23.3
2005-07-04 07:41:54 51°25.395 2°51.588 10 12.7 1 23.3
2005-07-04 07:41:59 51°25.413 2°51.589 9.9 12.8 1 23.4
2005-07-04 07:42:04 51°25.428 2°51.589 10 12.7 1 23.5
2005-07-04 07:42:09 51°25.448 2°51.589 9.8 12.7 1 23.7
2005-07-04 07:42:14 51°25.466 2°51.59 9.7 12.7 1 23.8
2005-07-04 07:42:20 51°25.485 2°51.59 10.1 12.7 1 24
2005-07-04 07:42:24 51°25.501 2°51.591 10 12.7 1 24
2005-07-04 07:42:29 51°25.517 2°51.591 9.9 12.7 1 24.1
2005-07-04 07:42:34 51°25.536 2°51.592 10 12.7 2 24.2
2005-07-04 07:42:39 51°25.554 2°51.593 10.2 12.7 1 24.2
2005-07-04 07:42:44 51°25.569 2°51.594 10.5 12.7 1 24.3
2005-07-04 07:42:49 51°25.589 2°51.594 10.5 12.7 1 24.3
2005-07-04 07:42:54 51°25.606 2°51.596 10.5 12.7 2 24.2
2005-07-04 07:43:00 51°25.626 2°51.597 10.5 12.7 2 24.2
2005-07-04 07:43:04 51°25.641 2°51.598 10.5 12.7 2 24.2
2005-07-04 07:43:09 51°25.659 2°51.598 10.6 12.7 2 24.3
2005-07-04 07:43:14 51°25.677 2°51.598 10 12.8 1 24.5
2005-07-04 07:43:20 51°25.696 2°51.599 9.7 12.7 -999 24.6
2005-07-04 07:43:24 51°25.71 2°51.599 9.6 12.7 1 24.7
2005-07-04 07:43:30 51°25.731 2°51.6 10 12.8 1 25
2005-07-04 07:43:34 51°25.747 2°51.601 10.3 12.8 1 25.1
2005-07-04 07:43:39 51°25.763 2°51.602 10.3 12.8 2 25.4
2005-07-04 07:43:44 51°25.783 2°51.603 10.3 12.8 2 25.7
2005-07-04 07:43:49 51°25.799 2°51.603 10.4 12.8 2 25.8
2005-07-04 07:43:54 51°25.818 2°51.605 10.6 12.8 2 26
2005-07-04 07:43:59 51°25.836 2°51.606 10.7 12.7 3 26.4
2005-07-04 07:44:04 51°25.852 2°51.607 10.3 12.8 2 26.7
2005-07-04 07:44:10 51°25.873 2°51.609 10.2 12.8 3 27
2005-07-04 07:44:14 51°25.889 2°51.61 10.3 12.8 3 27.7
2005-07-04 07:44:19 51°25.907 2°51.612 10.8 12.8 4 28.7
2005-07-04 07:44:24 51°25.924 2°51.613 10.6 12.8 4 29.6
2005-07-04 07:44:30 51°25.944 2°51.615 10.1 12.8 4 30.5
2005-07-04 07:44:34 51°25.958 2°51.618 11.1 12.8 5 30.7
2005-07-04 07:44:40 51°25.979 2°51.623 13.6 12.8 5 30.7
2005-07-04 07:44:44 51°25.993 2°51.627 15.2 12.8 9 30.5
2005-07-04 07:44:49 51°26.012 2°51.633 16.2 12.8 11 30.5
2005-07-04 07:44:54 51°26.029 2°51.638 17.7 12.8 11 30.3
2005-07-04 07:44:58 51°26.043 2°51.643 18.3 12.8 11 30.1
2005-07-04 07:45:04 51°26.064 2°51.65 18.6 12.8 11 29.9
2005-07-04 07:45:09 51°26.082 2°51.656 18.9 12.9 12 29.6
2005-07-04 07:45:14 51°26.099 2°51.662 19.5 12.8 13 29.1
2005-07-04 07:45:20 51°26.118 2°51.669 19.8 12.8 13 28.8
2005-07-04 07:45:24 51°26.134 2°51.674 19.9 12.8 13 28.3
2005-07-04 07:45:29 51°26.15 2°51.68 20.1 12.9 12 27.4
2005-07-04 07:45:34 51°26.169 2°51.686 19.6 12.9 12 27
2005-07-04 07:45:39 51°26.186 2°51.692 19.5 12.9 12 26.7
2005-07-04 07:45:44 51°26.202 2°51.698 19.7 12.8 13 26.3
2005-07-04 07:45:50 51°26.223 2°51.705 19.8 12.8 12 26
2005-07-04 07:45:54 51°26.238 2°51.712 20.7 12.8 12 25.7
2005-07-04 07:45:58 51°26.252 2°51.717 21.4 12.8 13 25.5
2005-07-04 07:46:03 51°26.269 2°51.725 21.8 12.8 14 25.3
2005-07-04 07:46:09 51°26.289 2°51.734 22.5 12.7 15 25.3
2005-07-04 07:46:14 51°26.306 2°51.742 23.2 12.7 15 25.5
2005-07-04 07:46:20 51°26.325 2°51.75 23.5 12.7 16 25.9
2005-07-04 07:46:24 51°26.338 2°51.757 23.4 12.7 16 26.6
2005-07-04 07:46:29 51°26.357 2°51.767 24.4 12.7 19 27.4
2005-07-04 07:46:34 51°26.373 2°51.776 25.9 12.7 19 27.4
2005-07-04 07:46:40 51°26.391 2°51.787 26.8 12.7 19 26.8
2005-07-04 07:46:44 51°26.405 2°51.794 27.2 12.7 20 26.5
2005-07-04 07:46:49 51°26.423 2°51.806 27.5 12.7 20 26.5
2005-07-04 07:46:54 51°26.439 2°51.816 28.3 12.8 21 26.5
2005-07-04 07:46:58 51°26.452 2°51.824 28.2 12.7 21 26.5
2005-07-04 07:47:04 51°26.471 2°51.834 28 12.8 21 26.5
2005-07-04 07:47:10 51°26.491 2°51.846 27.8 12.8 19 26.5
2005-07-04 07:47:14 51°26.506 2°51.855 27.6 12.7 21 26.4
2005-07-04 07:47:19 51°26.52 2°51.864 27.7 12.7 20 26.9
2005-07-04 07:47:25 51°26.537 2°51.875 28.5 12.7 20 27.1
2005-07-04 07:47:30 51°26.55 2°51.883 28.9 11.2 21 27.1
2005-07-04 07:47:34 51°26.561 2°51.889 28.9 9.9 21 27.1
2005-07-04 07:47:39 51°26.573 2°51.896 28.3 9.7 20 27.3
2005-07-04 07:47:44 51°26.583 2°51.902 27.7 9 20 27.3
2005-07-04 07:47:50 51°26.595 2°51.911 29 9 20 27.4
2005-07-04 07:47:54 51°26.603 2°51.918 31.9 7.8 26 27.7
2005-07-04 07:47:58 51°26.61 2°51.925 35.7 7.3 31 27.7
2005-07-04 07:48:03 51°26.617 2°51.933 40 7.3 31 28
2005-07-04 07:48:09 51°26.626 2°51.944 42.8 7.3 31 27.7
2005-07-04 07:48:14 51°26.633 2°51.952 44.2 7.3 31 28
2005-07-04 07:48:19 51°26.64 2°51.96 44.4 6.3 37 27.8
2005-07-04 07:48:24 51°26.646 2°51.968 44.3 6.1 37 28
2005-07-04 07:48:30 51°26.654 2°51.976 43.7 6 36 28.2
2005-07-04 07:48:34 51°26.66 2°51.982 42.7 5.7 34 28.1
2005-07-04 07:48:40 51°26.667 2°51.989 40.7 5.7 34 27.8
2005-07-04 07:48:44 51°26.673 2°51.993 38.1 5.5 28 27.9
2005-07-04 07:48:46 51°26.676 2°51.996 35.1 5.4 26 27.8
2005-07-04 07:48:54 51°26.687 2°52.002 31.9 5.3 21 27.6
2005-07-04 07:48:59 51°26.694 2°52.006 29 5.2 18 27.5
2005-07-04 07:49:04 51°26.7 2°52.009 27.9 5.2 19 27.3
2005-07-04 07:49:08 51°26.705 2°52.012 27.5 5 17 27.4
2005-07-04 07:49:14 51°26.714 2°52.016 27.5 5 18 27.1
2005-07-04 07:49:20 51°26.721 2°52.02 27.7 5.1 18 27
2005-07-04 07:49:24 51°26.726 2°52.023 28.4 4.9 19 26.9
2005-07-04 07:49:29 51°26.732 2°52.027 29.4 4.6 20 26.9
2005-07-04 07:49:34 51°26.738 2°52.03 30.2 4.3 20 26.8
2005-07-04 07:49:39 51°26.743 2°52.032 30.4 4 20 26.9
2005-07-04 07:49:44 51°26.747 2°52.034 29.9 3.6 19 26.8
2005-07-04 07:49:50 51°26.751 2°52.037 29.4 2.8 17 26.8
2005-07-04 07:49:54 51°26.753 2°52.038 31 2.2 18 26.8
2005-07-04 07:49:59 51°26.754 2°52.038 34.8 1.6 15 26.6
2005-07-04 07:50:04 51°26.755 2°52.038 39.9 0.7 3 26.5
2005-07-04 07:50:09 51°26.755 2°52.037 44.2 0.7 3 26.6
2005-07-04 07:50:14 51°26.755 2°52.036 47.1 0.5 277 26.7
2005-07-04 07:50:19 51°26.754 2°52.035 49.4 0.3 255 26.7
2005-07-04 07:50:24 51°26.754 2°52.035 51.7 0.3 262 26.8
2005-07-04 07:50:30 51°26.754 2°52.034 54.5 0.3 262 26.8
2005-07-04 07:50:34 51°26.754 2°52.033 57.2 0.3 247 26.7
2005-07-04 07:50:39 51°26.754 2°52.033 59.7 0.3 234 26.7
2005-07-04 07:50:44 51°26.753 2°52.032 62 0.4 235 26.7
2005-07-04 07:50:50 51°26.753 2°52.031 63.6 0.4 227 26.8
2005-07-04 07:50:54 51°26.752 2°52.031 65.6 0.4 227 26.9
2005-07-04 07:50:58 51°26.752 2°52.03 66.9 0.4 213 26.8
2005-07-04 07:51:04 51°26.751 2°52.03 68 0.4 213 26.8
2005-07-04 07:51:09 51°26.75 2°52.029 69.1 0.4 213 26.7
2005-07-04 07:51:14 51°26.75 2°52.029 70 0.4 213 26.6
2005-07-04 07:51:19 51°26.749 2°52.028 70.7 0.4 211 26.6
2005-07-04 07:51:24 51°26.749 2°52.028 71.4 0.4 211 26.6
2005-07-04 07:51:30 51°26.748 2°52.027 71.9 0.4 202 26.7
2005-07-04 07:51:34 51°26.747 2°52.027 72.3 0.4 202 26.9
2005-07-04 07:51:39 51°26.747 2°52.027 72.7 0.4 203 26.9
2005-07-04 07:51:44 51°26.746 2°52.027 73 0.4 199 26.8
2005-07-04 07:51:49 51°26.745 2°52.027 73.1 0.4 194 26.8
2005-07-04 07:51:54 51°26.745 2°52.026 73.2 0.5 195 26.8
2005-07-04 07:51:59 51°26.744 2°52.026 73.1 0.4 195 26.7
2005-07-04 07:52:04 51°26.743 2°52.026 72.9 0.4 195 26.8
2005-07-04 07:52:10 51°26.742 2°52.026 72.7 0.4 194 26.8
2005-07-04 07:52:14 51°26.742 2°52.025 72.3 0.4 194 26.9
2005-07-04 07:52:20 51°26.741 2°52.025 72.1 0.4 194 27
2005-07-04 07:52:24 51°26.741 2°52.025 71.5 0.4 194 27
2005-07-04 07:52:30 51°26.74 2°52.025 70.7 0.5 190 26.9
2005-07-04 07:52:34 51°26.739 2°52.025 70 0.5 189 26.9
2005-07-04 07:52:38 51°26.739 2°52.025 68.9 0.4 190 26.8
2005-07-04 07:52:44 51°26.738 2°52.024 67.8 0.4 190 26.8
2005-07-04 07:52:49 51°26.737 2°52.024 66.5 0.4 190 26.8
2005-07-04 07:52:54 51°26.737 2°52.024 65.1 0.4 190 26.9
2005-07-04 07:52:59 51°26.736 2°52.024 63.6 0.4 191 26.9
2005-07-04 07:53:04 51°26.736 2°52.023 62 0.5 189 26.9
2005-07-04 07:53:10 51°26.735 2°52.023 60.5 0.4 198 27
2005-07-04 07:53:14 51°26.734 2°52.023 59.1 0.4 197 27
2005-07-04 07:53:20 51°26.734 2°52.023 57.8 0.4 197 27.1
2005-07-04 07:53:24 51°26.733 2°52.022 56.4 0.4 197 27.1
2005-07-04 07:53:29 51°26.733 2°52.022 55.2 0.4 197 27.1
2005-07-04 07:53:34 51°26.732 2°52.022 53.8 0.4 197 27
2005-07-04 07:53:40 51°26.731 2°52.021 52.7 0.5 198 26.8
2005-07-04 07:53:44 51°26.731 2°52.021 51.7 0.5 202 26.8
2005-07-04 07:53:49 51°26.73 2°52.02 50.8 0.5 202 26.7
2005-07-04 07:53:54 51°26.73 2°52.02 49.8 0.4 207 26.7
2005-07-04 07:54:00 51°26.729 2°52.02 49 0.5 209 26.9
2005-07-04 07:54:04 51°26.729 2°52.019 47.9 0.5 209 27